Pagina principale
METAR-TAF:

METAR-TAF

Aeroporti :

Farnborough, Inghilterra

latitudine: 51-17N, longitudine: 000-46W, altezza: 65 m

Osservazione

Il bollettino è stato emesso 44 minuti fa, alle 22:50 UTC
Vento 6 kt da sud
Temperature 14°C
Umidità 77%
Pressione 1018 hPa
Visibilità 10 km o più

METAR: EGLF 162250Z AUTO 17006KT 9999 OVC047/// 14/10 Q1018

Ora: 00:34 (23:34 UTC)

Previsione

Il bollettino è stato emesso 6 ore e 25 minuti fa, alle 17:09 UTC
Previsione valida dal 16 alle 18 UTC al 16 alle 20 UTC
Vento 12 kt da sud/sud-ovest
Visibilità 10 km o più
Nubi sparse ad un'altezza di 2500 ft

TAF: EGLF 161709Z 1618/1620 20012KT 9999 SCT025

Osservazioni e previsioni meteorologiche di più di 4000 aeroporti (messaggi METAR e TAF).

Le stazioni disponibili sono rappresentate dai dischi gialli e rossi sulla carta.

Puntare il mouse per vedere il nome della stazione.

Clicca sopra per visualizzare le osservazioni e previsioni meteorologiche.

Per cambiare la mappa : fare clic sui pulsanti verdi con una croce nera per ingrandire, il pulsante verde con un trattino per diminuire, o sulla freccia verde per le mappe adiacenti.


METAR-TAF: